#dbistima — V2PX5 — position and weather

sailwx.info

Track history (hours):
 
Tides and Currents Weather Stations Pressure Air Temp Water Temp Dewpoint Dewpoint Depression Visibility Wind Speed Wind Dir Waves Ship Positions

#dbistima

Last reported at 2017-Apr-28 21:30 UTC. Time now 2017-Apr-28 21:54 UTC.
Position N 55°17' E 012°49'.

MMSI: 304010972.

Date/timePositionNaut miles runAvg speedWind from/ knotsBaromVisibWave heightAir tempDewpointWater temp
2017-Apr-28 21:30N 55°17' E 012°49'5 9.9
2017-Apr-28 21:00N 55°16' E 012°58'510.0
2017-Apr-28 20:30N 55°16' E 013°07'510.2
2017-Apr-28 20:00N 55°15' E 013°16'510.2
2017-Apr-28 19:29N 55°15' E 013°25'510.1
2017-Apr-28 18:59N 55°15' E 013°34'510.3
2017-Apr-28 18:30N 55°14' E 013°43'510.5
2017-Apr-28 17:59N 55°14' E 013°52'510.5
2017-Apr-28 17:30N 55°14' E 014°01'510.3
2017-Apr-28 17:00N 55°14' E 014°10'5 9.8
2017-Apr-28 16:30N 55°11' E 014°17'510.4
2017-Apr-28 16:00N 55°07' E 014°24'510.5
2017-Apr-28 15:30N 55°04' E 014°31'510.5
2017-Apr-28 15:00N 55°00' E 014°37'1010.0
2017-Apr-28 14:00N 54°55' E 014°52'510.3
2017-Apr-28 13:30N 54°55' E 015°01'510.3
2017-Apr-28 13:00N 54°55' E 015°10'610.4
2017-Apr-28 12:27N 54°55' E 015°20'710.4
2017-Apr-28 11:50N 54°55' E 015°31'9010.4
2017-Apr-28 03:11N 54°57' E 018°07'210.4
2017-Apr-28 03:00N 54°57' E 018°10'710.4
2017-Apr-28 02:18N 54°57' E 018°23'310.2
2017-Apr-28 02:00N 54°57' E 018°28'5 9.6
2017-Apr-28 01:30N 54°56' E 018°36'510.3
2017-Apr-28 01:00N 54°53' E 018°43'510.5
2017-Apr-28 00:30N 54°49' E 018°51'510.5
2017-Apr-28 00:00N 54°46' E 018°58'5 9.2
2017-Apr-27 23:30N 54°42' E 018°58'510.4
2017-Apr-27 23:00N 54°37' E 018°55'510.0
2017-Apr-27 22:30N 54°33' E 018°50'510.3
2017-Apr-27 22:00N 54°29' E 018°44'4 8.9
2017-Apr-27 21:31N 54°26' E 018°39'3 5.0
2017-Apr-27 21:00N 54°23' E 018°40'0 0.1
2017-Apr-27 20:30N 54°23' E 018°40'0 0.0
2017-Apr-27 20:00N 54°23' E 018°40'0 0.0
2017-Apr-27 19:30N 54°23' E 018°40'0 0.0
2017-Apr-27 19:00N 54°23' E 018°40'0 0.0
2017-Apr-27 18:30N 54°23' E 018°40'0 0.0
2017-Apr-27 18:00N 54°23' E 018°40'0 0.0
2017-Apr-27 17:30N 54°23' E 018°40'0 0.0
2017-Apr-27 17:00N 54°23' E 018°40'0 0.0
2017-Apr-27 16:30N 54°23' E 018°40'0 0.0
2017-Apr-27 16:00N 54°23' E 018°40'0 0.0
2017-Apr-27 15:30N 54°23' E 018°40'0 0.0
2017-Apr-27 15:00N 54°23' E 018°40'0 0.0
2017-Apr-27 14:00N 54°23' E 018°40'0 0.0
2017-Apr-27 13:30N 54°23' E 018°40'0 0.0
2017-Apr-27 13:00N 54°23' E 018°40'0 0.0
2017-Apr-27 12:30N 54°23' E 018°40'0 0.0
2017-Apr-27 12:00N 54°23' E 018°40'0 0.0
2017-Apr-27 11:30N 54°23' E 018°40'0 0.0
2017-Apr-27 11:00N 54°23' E 018°40'0 0.0
2017-Apr-27 10:30N 54°23' E 018°40'0 0.0
2017-Apr-27 10:00N 54°23' E 018°40'0 0.0
2017-Apr-27 09:30N 54°23' E 018°40'0 0.0
2017-Apr-27 09:00N 54°23' E 018°40'0 0.0
2017-Apr-27 08:30N 54°23' E 018°40'0 0.0
2017-Apr-27 08:00N 54°23' E 018°40'0 0.0
2017-Apr-27 07:30N 54°23' E 018°40'0 0.0
2017-Apr-27 07:00N 54°23' E 018°40'0 0.0
2017-Apr-27 06:30N 54°23' E 018°40'0 0.0
2017-Apr-27 06:00N 54°23' E 018°40'0 0.0
2017-Apr-27 05:30N 54°23' E 018°40'0 0.0
2017-Apr-27 05:00N 54°23' E 018°40'0 0.0
2017-Apr-27 04:27N 54°23' E 018°40'0 0.4
2017-Apr-27 04:01N 54°23' E 018°40'1 2.9
2017-Apr-27 03:31N 54°24' E 018°40'2 4.7
2017-Apr-27 03:00N 54°27' E 018°39'0 0.3
2017-Apr-27 02:28N 54°26' E 018°39'0 0.1
2017-Apr-27 01:58N 54°26' E 018°39'0 0.0
2017-Apr-27 01:28N 54°27' E 018°39'0 0.1
2017-Apr-27 00:58N 54°27' E 018°39'0 0.0
2017-Apr-27 00:28N 54°27' E 018°39'0 0.0
2017-Apr-26 23:58N 54°27' E 018°39'0 0.0
2017-Apr-26 23:28N 54°27' E 018°39'0 0.1
2017-Apr-26 22:58N 54°27' E 018°39'0 0.0
2017-Apr-26 22:28N 54°27' E 018°39'0 0.0
2017-Apr-26 21:58N 54°27' E 018°39'0 0.0
2017-Apr-26 21:28N 54°27' E 018°39'0 0.2
2017-Apr-26 20:58N 54°26' E 018°39'0 0.1
2017-Apr-26 20:28N 54°26' E 018°39'0 0.2
2017-Apr-26 19:58N 54°27' E 018°39'0 0.2
2017-Apr-26 19:28N 54°26' E 018°39'0 0.0
2017-Apr-26 18:58N 54°26' E 018°39'0 0.0
2017-Apr-26 18:28N 54°26' E 018°39'0 0.1
2017-Apr-26 17:58N 54°26' E 018°39'0 0.1
2017-Apr-26 17:28N 54°26' E 018°39'0 0.0
2017-Apr-26 16:58N 54°26' E 018°39'0 0.0
2017-Apr-26 16:28N 54°26' E 018°39'0 0.0
2017-Apr-26 15:58N 54°26' E 018°39'0 0.0
2017-Apr-26 15:28N 54°26' E 018°39'0 0.0
2017-Apr-26 14:58N 54°26' E 018°39'0 0.0
2017-Apr-26 14:28N 54°26' E 018°39'0 0.0
2017-Apr-26 13:28N 54°26' E 018°39'0 0.0
2017-Apr-26 12:58N 54°26' E 018°39'0 0.0
2017-Apr-26 12:28N 54°26' E 018°39'0 0.2
2017-Apr-26 11:58N 54°27' E 018°39'0 0.1
2017-Apr-26 11:28N 54°26' E 018°39'0 0.1
2017-Apr-26 10:58N 54°26' E 018°39'0 0.1
2017-Apr-26 10:28N 54°26' E 018°39'0 0.0
2017-Apr-26 09:58N 54°26' E 018°39'0 0.1
2017-Apr-26 09:28N 54°26' E 018°39'0 0.0
2017-Apr-26 08:58N 54°26' E 018°39'0 0.0
2017-Apr-26 08:28N 54°26' E 018°39'0 0.0
2017-Apr-26 07:58N 54°26' E 018°39'0 0.1
2017-Apr-26 07:28N 54°26' E 018°39'0 0.0
2017-Apr-26 06:58N 54°27' E 018°39'0 0.0
2017-Apr-26 06:28N 54°27' E 018°39'0 0.0
2017-Apr-26 05:58N 54°27' E 018°39'0 0.0
2017-Apr-26 05:28N 54°27' E 018°39'0 0.0
2017-Apr-26 04:58N 54°27' E 018°39'0 0.0
2017-Apr-26 04:28N 54°27' E 018°39'0 0.0
2017-Apr-26 03:58N 54°27' E 018°39'0 0.0
2017-Apr-26 03:28N 54°27' E 018°39'0 0.0
2017-Apr-26 02:58N 54°27' E 018°39'0 0.0
2017-Apr-26 02:28N 54°27' E 018°39'0 0.0
2017-Apr-26 01:58N 54°27' E 018°39'0 0.0
2017-Apr-26 01:28N 54°27' E 018°39'0 0.1
2017-Apr-26 00:58N 54°27' E 018°39'0 0.0
2017-Apr-26 00:28N 54°27' E 018°39'0 0.0
2017-Apr-25 23:58N 54°27' E 018°39'0 0.0
2017-Apr-25 23:28N 54°27' E 018°39'0 0.0
2017-Apr-25 22:58N 54°27' E 018°39'0 0.0
2017-Apr-25 22:28N 54°27' E 018°39'0 0.0
2017-Apr-25 21:58N 54°27' E 018°39'0 0.0
2017-Apr-25 21:29N 54°26' E 018°39'0 0.0
2017-Apr-25 20:58N 54°26' E 018°39'0 0.0
2017-Apr-25 20:28N 54°26' E 018°39'0 0.0
2017-Apr-25 19:58N 54°26' E 018°39'0 0.0
2017-Apr-25 19:28N 54°26' E 018°39'0 0.1
2017-Apr-25 18:58N 54°26' E 018°39'0 0.1
2017-Apr-25 18:28N 54°27' E 018°39'0 0.0
2017-Apr-25 17:58N 54°27' E 018°39'0 0.0
2017-Apr-25 17:28N 54°27' E 018°39'0 0.1
2017-Apr-25 16:58N 54°27' E 018°39'0 0.1
2017-Apr-25 16:28N 54°26' E 018°39'0 0.0
2017-Apr-25 15:58N 54°26' E 018°39'0 0.0
2017-Apr-25 15:28N 54°26' E 018°39'0 0.0
2017-Apr-25 14:58N 54°26' E 018°39'0 0.1
2017-Apr-25 14:28N 54°26' E 018°39'0 0.0
2017-Apr-25 13:28N 54°26' E 018°39'0 0.0
2017-Apr-25 12:58N 54°26' E 018°39'0 0.0
2017-Apr-25 12:28N 54°26' E 018°39'0 0.0
2017-Apr-25 11:58N 54°26' E 018°39'0 0.0
2017-Apr-25 11:28N 54°26' E 018°39'0 0.0
2017-Apr-25 10:58N 54°26' E 018°39'0 0.0
2017-Apr-25 10:28N 54°26' E 018°39'0 0.0
2017-Apr-25 09:58N 54°26' E 018°39'0 0.0
2017-Apr-25 09:28N 54°26' E 018°39'0 0.0
2017-Apr-25 08:58N 54°26' E 018°39'0 0.0
2017-Apr-25 08:28N 54°26' E 018°39'0 0.1
2017-Apr-25 07:58N 54°26' E 018°39'0 0.0
2017-Apr-25 07:28N 54°26' E 018°39'0 0.1
2017-Apr-25 06:58N 54°27' E 018°39'0 0.0
2017-Apr-25 06:28N 54°27' E 018°39'0 0.0
2017-Apr-25 05:58N 54°27' E 018°39'0 0.0
2017-Apr-25 05:28N 54°27' E 018°39'0 0.1
2017-Apr-25 04:58N 54°27' E 018°39'0 0.1
2017-Apr-25 04:28N 54°27' E 018°39'0 0.1
2017-Apr-25 03:58N 54°26' E 018°39'0 0.0
2017-Apr-25 03:28N 54°26' E 018°39'0 0.1
2017-Apr-25 02:58N 54°27' E 018°39'0 0.1
2017-Apr-25 02:28N 54°27' E 018°39'0 0.0
2017-Apr-25 01:58N 54°27' E 018°39'0 0.0
2017-Apr-25 01:28N 54°27' E 018°39'0 0.0
2017-Apr-25 00:58N 54°27' E 018°39'0 0.0
2017-Apr-25 00:28N 54°27' E 018°39'0 0.0
2017-Apr-24 23:58N 54°27' E 018°39'0 0.0
2017-Apr-24 23:28N 54°27' E 018°39'0 0.1
2017-Apr-24 22:58N 54°27' E 018°39'0 0.1
2017-Apr-24 22:28N 54°27' E 018°39'0 0.0
2017-Apr-24 21:58N 54°27' E 018°39'0 0.0
2017-Apr-24 21:28N 54°27' E 018°39'0 0.0
2017-Apr-24 20:58N 54°27' E 018°39'0 0.0
2017-Apr-24 20:28N 54°27' E 018°39'0 0.0
2017-Apr-24 19:58N 54°27' E 018°39'0 0.0
2017-Apr-24 19:28N 54°27' E 018°39'0 0.0
2017-Apr-24 18:58N 54°27' E 018°39'0 0.0
2017-Apr-24 18:28N 54°27' E 018°39'0 0.0
2017-Apr-24 17:58N 54°27' E 018°39'0 0.0
2017-Apr-24 17:28N 54°27' E 018°39'0 0.0
2017-Apr-24 16:58N 54°27' E 018°39'0 0.0
2017-Apr-24 16:28N 54°27' E 018°39'0 0.0
2017-Apr-24 15:58N 54°27' E 018°39'0 0.1
2017-Apr-24 15:28N 54°27' E 018°39'0 0.0
2017-Apr-24 14:58N 54°27' E 018°39'0 0.0
2017-Apr-24 14:28N 54°27' E 018°39'0 0.0
2017-Apr-24 13:28N 54°27' E 018°39'0 0.0
2017-Apr-24 12:58N 54°27' E 018°39'0 0.0
2017-Apr-24 12:28N 54°27' E 018°39'0 0.0
2017-Apr-24 11:58N 54°27' E 018°39'0 0.0
2017-Apr-24 11:28N 54°27' E 018°39'0 0.0
2017-Apr-24 10:58N 54°27' E 018°39'0 0.0
2017-Apr-24 10:28N 54°27' E 018°39'0 0.1
2017-Apr-24 09:58N 54°26' E 018°39'0 0.0
2017-Apr-24 09:28N 54°26' E 018°39'0 0.0
2017-Apr-24 08:58N 54°26' E 018°39'0 0.0
2017-Apr-24 08:28N 54°26' E 018°39'0 0.1
2017-Apr-24 07:58N 54°26' E 018°39'0 0.0
2017-Apr-24 07:28N 54°26' E 018°39'0 0.1
2017-Apr-24 06:58N 54°26' E 018°39'0 0.1
2017-Apr-24 06:28N 54°26' E 018°39'0 0.0
2017-Apr-24 05:58N 54°26' E 018°39'0 0.0
2017-Apr-24 05:28N 54°26' E 018°39'0 0.0
2017-Apr-24 04:58N 54°26' E 018°39'0 0.0
2017-Apr-24 04:28N 54°26' E 018°39'0 0.0
2017-Apr-24 03:58N 54°26' E 018°39'0 0.0
2017-Apr-24 03:28N 54°26' E 018°39'0 0.0
2017-Apr-24 02:58N 54°26' E 018°39'0 0.0
2017-Apr-24 02:28N 54°26' E 018°39'0 0.0
2017-Apr-24 01:58N 54°26' E 018°39'0 0.0
2017-Apr-24 01:28N 54°26' E 018°39'0 0.0
2017-Apr-24 00:58N 54°26' E 018°39'0 0.0
2017-Apr-24 00:28N 54°26' E 018°39'0 0.0
2017-Apr-23 23:58N 54°26' E 018°39'0 0.0
2017-Apr-23 23:28N 54°26' E 018°39'0 0.0
2017-Apr-23 22:58N 54°26' E 018°39'0 0.0
2017-Apr-23 22:28N 54°26' E 018°39'0 0.0
2017-Apr-23 21:58N 54°26' E 018°39'0 0.0
2017-Apr-23 21:28N 54°26' E 018°39'0 0.0
2017-Apr-23 20:58N 54°26' E 018°39'0 0.0
2017-Apr-23 20:28N 54°26' E 018°39'0 0.0
2017-Apr-23 19:58N 54°26' E 018°39'0 0.1
2017-Apr-23 19:28N 54°26' E 018°39'0 0.0
2017-Apr-23 18:58N 54°26' E 018°39'0 0.1
2017-Apr-23 18:28N 54°26' E 018°39'0 0.0
2017-Apr-23 17:58N 54°26' E 018°39'0 0.0
2017-Apr-23 17:28N 54°26' E 018°39'0 0.3
2017-Apr-23 16:58N 54°27' E 018°39'0 0.0
2017-Apr-23 16:28N 54°27' E 018°39'0 0.0
2017-Apr-23 15:58N 54°26' E 018°39'0 0.1
2017-Apr-23 15:28N 54°26' E 018°39'0 0.1
2017-Apr-23 14:58N 54°26' E 018°39'0 0.1
2017-Apr-23 13:58N 54°26' E 018°39'0 0.1
2017-Apr-23 13:28N 54°26' E 018°39'0 0.2
2017-Apr-23 12:58N 54°26' E 018°39'0 0.1
2017-Apr-23 12:28N 54°27' E 018°39'0 0.0
2017-Apr-23 11:58N 54°27' E 018°39'0 0.0
2017-Apr-23 11:28N 54°27' E 018°39'0 0.0
2017-Apr-23 10:58N 54°26' E 018°39'0 0.0
2017-Apr-23 10:28N 54°26' E 018°39'0 0.1
2017-Apr-23 09:58N 54°26' E 018°39'0 0.0
2017-Apr-23 09:28N 54°26' E 018°39'0 0.1
2017-Apr-23 08:58N 54°26' E 018°39'0 0.0
2017-Apr-23 08:28N 54°26' E 018°39'0 0.0
2017-Apr-23 07:55N 54°26' E 018°39'0 0.0
2017-Apr-23 07:28N 54°26' E 018°39'0 0.0
2017-Apr-23 06:58N 54°26' E 018°39'0 0.0
2017-Apr-23 06:28N 54°26' E 018°39'0 0.0
2017-Apr-23 05:55N 54°26' E 018°39'0 0.0
2017-Apr-23 05:28N 54°26' E 018°39'0 0.0
2017-Apr-23 04:58N 54°26' E 018°39'0 0.0
2017-Apr-23 04:28N 54°26' E 018°39'0 0.0
2017-Apr-23 03:58N 54°26' E 018°39'0 0.0
2017-Apr-23 03:28N 54°26' E 018°39'0 0.0
2017-Apr-23 02:58N 54°26' E 018°39'0 0.0
2017-Apr-23 02:28N 54°26' E 018°39'0 0.0
2017-Apr-23 01:58N 54°26' E 018°39'0 0.0
2017-Apr-23 01:28N 54°26' E 018°39'0 0.0
2017-Apr-23 00:58N 54°26' E 018°39'0 0.0
2017-Apr-23 00:28N 54°26' E 018°39'0 0.0
2017-Apr-22 23:58N 54°26' E 018°39'0 0.0
2017-Apr-22 23:28N 54°26' E 018°39'0 0.0
2017-Apr-22 22:58N 54°26' E 018°39'0 0.0
2017-Apr-22 22:28N 54°26' E 018°39'0 0.0
2017-Apr-22 21:58N 54°26' E 018°39'0 0.0
2017-Apr-22 21:28N 54°26' E 018°39'0 0.0
2017-Apr-22 20:58N 54°26' E 018°39'0 0.1
2017-Apr-22 20:28N 54°26' E 018°39'0 0.1
2017-Apr-22 19:58N 54°26' E 018°39'0 0.0
2017-Apr-22 19:28N 54°26' E 018°39'0 0.0
2017-Apr-22 18:58N 54°26' E 018°39'0 0.0
2017-Apr-22 18:28N 54°26' E 018°39'0 0.0
2017-Apr-22 17:58N 54°26' E 018°39'0 0.0
2017-Apr-22 17:28N 54°26' E 018°39'0 0.0
2017-Apr-22 16:58N 54°26' E 018°39'0 0.0
2017-Apr-22 16:28N 54°26' E 018°39'0 0.2
2017-Apr-22 15:59N 54°27' E 018°39'2 4.9
2017-Apr-22 15:30N 54°28' E 018°42'5 9.1
2017-Apr-22 15:01N 54°32' E 018°47'5 9.3
2017-Apr-22 14:30N 54°35' E 018°52'9 9.5
2017-Apr-22 13:31N 54°44' E 018°59'4 7.1
2017-Apr-22 13:00N 54°47' E 018°57'4 8.2
2017-Apr-22 12:30N 54°50' E 018°51'4 8.3
2017-Apr-22 12:00N 54°52' E 018°45'4 8.8
2017-Apr-22 11:31N 54°55' E 018°39'4 8.8
2017-Apr-22 11:00N 54°57' E 018°33'4 9.0
2017-Apr-22 10:30N 54°57' E 018°25'5 9.0
2017-Apr-22 09:55N 54°56' E 018°16'4 8.9
2017-Apr-22 09:30N 54°56' E 018°10'4 8.9
2017-Apr-22 09:00N 54°55' E 018°02'  
2017-Apr-19 13:37N 53°34' E 014°35'0 0.1
2017-Apr-19 13:30N 53°34' E 014°35'0 0.0
2017-Apr-19 08:41N 53°34' E 014°35'  
Track history (hours):
 
Tides and Currents Weather Stations Pressure Air Temp Water Temp Dewpoint Dewpoint Depression Visibility Wind Speed Wind Dir Waves Ship Positions

#dbistima

Last reported at 2017-Apr-28 21:30 UTC. Time now 2017-Apr-28 21:54 UTC.
Position N 55°17' E 012°49'.

MMSI: 304010972.

Date/timePositionNaut miles runAvg speedWind from/ knotsBaromVisibWave heightAir tempDewpointWater temp
2017-Apr-28 21:30N 55°17' E 012°49'5 9.9
2017-Apr-28 21:00N 55°16' E 012°58'510.0
2017-Apr-28 20:30N 55°16' E 013°07'510.2
2017-Apr-28 20:00N 55°15' E 013°16'510.2
2017-Apr-28 19:29N 55°15' E 013°25'510.1
2017-Apr-28 18:59N 55°15' E 013°34'510.3
2017-Apr-28 18:30N 55°14' E 013°43'510.5
2017-Apr-28 17:59N 55°14' E 013°52'510.5
2017-Apr-28 17:30N 55°14' E 014°01'510.3
2017-Apr-28 17:00N 55°14' E 014°10'5 9.8
2017-Apr-28 16:30N 55°11' E 014°17'510.4
2017-Apr-28 16:00N 55°07' E 014°24'510.5
2017-Apr-28 15:30N 55°04' E 014°31'510.5
2017-Apr-28 15:00N 55°00' E 014°37'1010.0
2017-Apr-28 14:00N 54°55' E 014°52'510.3
2017-Apr-28 13:30N 54°55' E 015°01'510.3
2017-Apr-28 13:00N 54°55' E 015°10'610.4
2017-Apr-28 12:27N 54°55' E 015°20'710.4
2017-Apr-28 11:50N 54°55' E 015°31'9010.4
2017-Apr-28 03:11N 54°57' E 018°07'210.4
2017-Apr-28 03:00N 54°57' E 018°10'710.4
2017-Apr-28 02:18N 54°57' E 018°23'310.2
2017-Apr-28 02:00N 54°57' E 018°28'5 9.6
2017-Apr-28 01:30N 54°56' E 018°36'510.3
2017-Apr-28 01:00N 54°53' E 018°43'510.5
2017-Apr-28 00:30N 54°49' E 018°51'510.5
2017-Apr-28 00:00N 54°46' E 018°58'5 9.2
2017-Apr-27 23:30N 54°42' E 018°58'510.4
2017-Apr-27 23:00N 54°37' E 018°55'510.0
2017-Apr-27 22:30N 54°33' E 018°50'510.3
2017-Apr-27 22:00N 54°29' E 018°44'4 8.9
2017-Apr-27 21:31N 54°26' E 018°39'3 5.0
2017-Apr-27 21:00N 54°23' E 018°40'0 0.1
2017-Apr-27 20:30N 54°23' E 018°40'0 0.0
2017-Apr-27 20:00N 54°23' E 018°40'0 0.0
2017-Apr-27 19:30N 54°23' E 018°40'0 0.0
2017-Apr-27 19:00N 54°23' E 018°40'0 0.0
2017-Apr-27 18:30N 54°23' E 018°40'0 0.0
2017-Apr-27 18:00N 54°23' E 018°40'0 0.0
2017-Apr-27 17:30N 54°23' E 018°40'0 0.0
2017-Apr-27 17:00N 54°23' E 018°40'0 0.0
2017-Apr-27 16:30N 54°23' E 018°40'0 0.0
2017-Apr-27 16:00N 54°23' E 018°40'0 0.0
2017-Apr-27 15:30N 54°23' E 018°40'0 0.0
2017-Apr-27 15:00N 54°23' E 018°40'0 0.0
2017-Apr-27 14:00N 54°23' E 018°40'0 0.0
2017-Apr-27 13:30N 54°23' E 018°40'0 0.0
2017-Apr-27 13:00N 54°23' E 018°40'0 0.0
2017-Apr-27 12:30N 54°23' E 018°40'0 0.0
2017-Apr-27 12:00N 54°23' E 018°40'0 0.0
2017-Apr-27 11:30N 54°23' E 018°40'0 0.0
2017-Apr-27 11:00N 54°23' E 018°40'0 0.0
2017-Apr-27 10:30N 54°23' E 018°40'0 0.0
2017-Apr-27 10:00N 54°23' E 018°40'0 0.0
2017-Apr-27 09:30N 54°23' E 018°40'0 0.0
2017-Apr-27 09:00N 54°23' E 018°40'0 0.0
2017-Apr-27 08:30N 54°23' E 018°40'0 0.0
2017-Apr-27 08:00N 54°23' E 018°40'0 0.0
2017-Apr-27 07:30N 54°23' E 018°40'0 0.0
2017-Apr-27 07:00N 54°23' E 018°40'0 0.0
2017-Apr-27 06:30N 54°23' E 018°40'0 0.0
2017-Apr-27 06:00N 54°23' E 018°40'0 0.0
2017-Apr-27 05:30N 54°23' E 018°40'0 0.0
2017-Apr-27 05:00N 54°23' E 018°40'0 0.0
2017-Apr-27 04:27N 54°23' E 018°40'0 0.4
2017-Apr-27 04:01N 54°23' E 018°40'1 2.9
2017-Apr-27 03:31N 54°24' E 018°40'2 4.7
2017-Apr-27 03:00N 54°27' E 018°39'0 0.3
2017-Apr-27 02:28N 54°26' E 018°39'0 0.1
2017-Apr-27 01:58N 54°26' E 018°39'0 0.0
2017-Apr-27 01:28N 54°27' E 018°39'0 0.1
2017-Apr-27 00:58N 54°27' E 018°39'0 0.0
2017-Apr-27 00:28N 54°27' E 018°39'0 0.0
2017-Apr-26 23:58N 54°27' E 018°39'0 0.0
2017-Apr-26 23:28N 54°27' E 018°39'0 0.1
2017-Apr-26 22:58N 54°27' E 018°39'0 0.0
2017-Apr-26 22:28N 54°27' E 018°39'0 0.0
2017-Apr-26 21:58N 54°27' E 018°39'0 0.0
2017-Apr-26 21:28N 54°27' E 018°39'0 0.2
2017-Apr-26 20:58N 54°26' E 018°39'0 0.1
2017-Apr-26 20:28N 54°26' E 018°39'0 0.2
2017-Apr-26 19:58N 54°27' E 018°39'0 0.2
2017-Apr-26 19:28N 54°26' E 018°39'0 0.0
2017-Apr-26 18:58N 54°26' E 018°39'0 0.0
2017-Apr-26 18:28N 54°26' E 018°39'0 0.1
2017-Apr-26 17:58N 54°26' E 018°39'0 0.1
2017-Apr-26 17:28N 54°26' E 018°39'0 0.0
2017-Apr-26 16:58N 54°26' E 018°39'0 0.0
2017-Apr-26 16:28N 54°26' E 018°39'0 0.0
2017-Apr-26 15:58N 54°26' E 018°39'0 0.0
2017-Apr-26 15:28N 54°26' E 018°39'0 0.0
2017-Apr-26 14:58N 54°26' E 018°39'0 0.0
2017-Apr-26 14:28N 54°26' E 018°39'0 0.0
2017-Apr-26 13:28N 54°26' E 018°39'0 0.0
2017-Apr-26 12:58N 54°26' E 018°39'0 0.0
2017-Apr-26 12:28N 54°26' E 018°39'0 0.2
2017-Apr-26 11:58N 54°27' E 018°39'0 0.1
2017-Apr-26 11:28N 54°26' E 018°39'0 0.1
2017-Apr-26 10:58N 54°26' E 018°39'0 0.1
2017-Apr-26 10:28N 54°26' E 018°39'0 0.0
2017-Apr-26 09:58N 54°26' E 018°39'0 0.1
2017-Apr-26 09:28N 54°26' E 018°39'0 0.0
2017-Apr-26 08:58N 54°26' E 018°39'0 0.0
2017-Apr-26 08:28N 54°26' E 018°39'0 0.0
2017-Apr-26 07:58N 54°26' E 018°39'0 0.1
2017-Apr-26 07:28N 54°26' E 018°39'0 0.0
2017-Apr-26 06:58N 54°27' E 018°39'0 0.0
2017-Apr-26 06:28N 54°27' E 018°39'0 0.0
2017-Apr-26 05:58N 54°27' E 018°39'0 0.0
2017-Apr-26 05:28N 54°27' E 018°39'0 0.0
2017-Apr-26 04:58N 54°27' E 018°39'0 0.0
2017-Apr-26 04:28N 54°27' E 018°39'0 0.0
2017-Apr-26 03:58N 54°27' E 018°39'0 0.0
2017-Apr-26 03:28N 54°27' E 018°39'0 0.0
2017-Apr-26 02:58N 54°27' E 018°39'0 0.0
2017-Apr-26 02:28N 54°27' E 018°39'0 0.0
2017-Apr-26 01:58N 54°27' E 018°39'0 0.0
2017-Apr-26 01:28N 54°27' E 018°39'0 0.1
2017-Apr-26 00:58N 54°27' E 018°39'0 0.0
2017-Apr-26 00:28N 54°27' E 018°39'0 0.0
2017-Apr-25 23:58N 54°27' E 018°39'0 0.0
2017-Apr-25 23:28N 54°27' E 018°39'0 0.0
2017-Apr-25 22:58N 54°27' E 018°39'0 0.0
2017-Apr-25 22:28N 54°27' E 018°39'0 0.0
2017-Apr-25 21:58N 54°27' E 018°39'0 0.0
2017-Apr-25 21:29N 54°26' E 018°39'0 0.0
2017-Apr-25 20:58N 54°26' E 018°39'0 0.0
2017-Apr-25 20:28N 54°26' E 018°39'0 0.0
2017-Apr-25 19:58N 54°26' E 018°39'0 0.0
2017-Apr-25 19:28N 54°26' E 018°39'0 0.1
2017-Apr-25 18:58N 54°26' E 018°39'0 0.1
2017-Apr-25 18:28N 54°27' E 018°39'0 0.0
2017-Apr-25 17:58N 54°27' E 018°39'0 0.0
2017-Apr-25 17:28N 54°27' E 018°39'0 0.1
2017-Apr-25 16:58N 54°27' E 018°39'0 0.1
2017-Apr-25 16:28N 54°26' E 018°39'0 0.0
2017-Apr-25 15:58N 54°26' E 018°39'0 0.0
2017-Apr-25 15:28N 54°26' E 018°39'0 0.0
2017-Apr-25 14:58N 54°26' E 018°39'0 0.1
2017-Apr-25 14:28N 54°26' E 018°39'0 0.0
2017-Apr-25 13:28N 54°26' E 018°39'0 0.0
2017-Apr-25 12:58N 54°26' E 018°39'0 0.0
2017-Apr-25 12:28N 54°26' E 018°39'0 0.0
2017-Apr-25 11:58N 54°26' E 018°39'0 0.0
2017-Apr-25 11:28N 54°26' E 018°39'0 0.0
2017-Apr-25 10:58N 54°26' E 018°39'0 0.0
2017-Apr-25 10:28N 54°26' E 018°39'0 0.0
2017-Apr-25 09:58N 54°26' E 018°39'0 0.0
2017-Apr-25 09:28N 54°26' E 018°39'0 0.0
2017-Apr-25 08:58N 54°26' E 018°39'0 0.0
2017-Apr-25 08:28N 54°26' E 018°39'0 0.1
2017-Apr-25 07:58N 54°26' E 018°39'0 0.0
2017-Apr-25 07:28N 54°26' E 018°39'0 0.1
2017-Apr-25 06:58N 54°27' E 018°39'0 0.0
2017-Apr-25 06:28N 54°27' E 018°39'0 0.0
2017-Apr-25 05:58N 54°27' E 018°39'0 0.0
2017-Apr-25 05:28N 54°27' E 018°39'0 0.1
2017-Apr-25 04:58N 54°27' E 018°39'0 0.1
2017-Apr-25 04:28N 54°27' E 018°39'0 0.1
2017-Apr-25 03:58N 54°26' E 018°39'0 0.0
2017-Apr-25 03:28N 54°26' E 018°39'0 0.1
2017-Apr-25 02:58N 54°27' E 018°39'0 0.1
2017-Apr-25 02:28N 54°27' E 018°39'0 0.0
2017-Apr-25 01:58N 54°27' E 018°39'0 0.0
2017-Apr-25 01:28N 54°27' E 018°39'0 0.0
2017-Apr-25 00:58N 54°27' E 018°39'0 0.0
2017-Apr-25 00:28N 54°27' E 018°39'0 0.0
2017-Apr-24 23:58N 54°27' E 018°39'0 0.0
2017-Apr-24 23:28N 54°27' E 018°39'0 0.1
2017-Apr-24 22:58N 54°27' E 018°39'0 0.1
2017-Apr-24 22:28N 54°27' E 018°39'0 0.0
2017-Apr-24 21:58N 54°27' E 018°39'0 0.0
2017-Apr-24 21:28N 54°27' E 018°39'0 0.0
2017-Apr-24 20:58N 54°27' E 018°39'0 0.0
2017-Apr-24 20:28N 54°27' E 018°39'0 0.0
2017-Apr-24 19:58N 54°27' E 018°39'0 0.0
2017-Apr-24 19:28N 54°27' E 018°39'0 0.0
2017-Apr-24 18:58N 54°27' E 018°39'0 0.0
2017-Apr-24 18:28N 54°27' E 018°39'0 0.0
2017-Apr-24 17:58N 54°27' E 018°39'0 0.0
2017-Apr-24 17:28N 54°27' E 018°39'0 0.0
2017-Apr-24 16:58N 54°27' E 018°39'0 0.0
2017-Apr-24 16:28N 54°27' E 018°39'0 0.0
2017-Apr-24 15:58N 54°27' E 018°39'0 0.1
2017-Apr-24 15:28N 54°27' E 018°39'0 0.0
2017-Apr-24 14:58N 54°27' E 018°39'0 0.0
2017-Apr-24 14:28N 54°27' E 018°39'0 0.0
2017-Apr-24 13:28N 54°27' E 018°39'0 0.0
2017-Apr-24 12:58N 54°27' E 018°39'0 0.0
2017-Apr-24 12:28N 54°27' E 018°39'0 0.0
2017-Apr-24 11:58N 54°27' E 018°39'0 0.0
2017-Apr-24 11:28N 54°27' E 018°39'0 0.0
2017-Apr-24 10:58N 54°27' E 018°39'0 0.0
2017-Apr-24 10:28N 54°27' E 018°39'0 0.1
2017-Apr-24 09:58N 54°26' E 018°39'0 0.0
2017-Apr-24 09:28N 54°26' E 018°39'0 0.0
2017-Apr-24 08:58N 54°26' E 018°39'0 0.0
2017-Apr-24 08:28N 54°26' E 018°39'0 0.1
2017-Apr-24 07:58N 54°26' E 018°39'0 0.0
2017-Apr-24 07:28N 54°26' E 018°39'0 0.1
2017-Apr-24 06:58N 54°26' E 018°39'0 0.1
2017-Apr-24 06:28N 54°26' E 018°39'0 0.0
2017-Apr-24 05:58N 54°26' E 018°39'0 0.0
2017-Apr-24 05:28N 54°26' E 018°39'0 0.0
2017-Apr-24 04:58N 54°26' E 018°39'0 0.0
2017-Apr-24 04:28N 54°26' E 018°39'0 0.0
2017-Apr-24 03:58N 54°26' E 018°39'0 0.0
2017-Apr-24 03:28N 54°26' E 018°39'0 0.0
2017-Apr-24 02:58N 54°26' E 018°39'0 0.0
2017-Apr-24 02:28N 54°26' E 018°39'0 0.0
2017-Apr-24 01:58N 54°26' E 018°39'0 0.0
2017-Apr-24 01:28N 54°26' E 018°39'0 0.0
2017-Apr-24 00:58N 54°26' E 018°39'0 0.0
2017-Apr-24 00:28N 54°26' E 018°39'0 0.0
2017-Apr-23 23:58N 54°26' E 018°39'0 0.0
2017-Apr-23 23:28N 54°26' E 018°39'0 0.0
2017-Apr-23 22:58N 54°26' E 018°39'0 0.0
2017-Apr-23 22:28N 54°26' E 018°39'0 0.0
2017-Apr-23 21:58N 54°26' E 018°39'0 0.0
2017-Apr-23 21:28N 54°26' E 018°39'0 0.0
2017-Apr-23 20:58N 54°26' E 018°39'0 0.0
2017-Apr-23 20:28N 54°26' E 018°39'0 0.0
2017-Apr-23 19:58N 54°26' E 018°39'0 0.1
2017-Apr-23 19:28N 54°26' E 018°39'0 0.0
2017-Apr-23 18:58N 54°26' E 018°39'0 0.1
2017-Apr-23 18:28N 54°26' E 018°39'0 0.0
2017-Apr-23 17:58N 54°26' E 018°39'0 0.0
2017-Apr-23 17:28N 54°26' E 018°39'0 0.3
2017-Apr-23 16:58N 54°27' E 018°39'0 0.0
2017-Apr-23 16:28N 54°27' E 018°39'0 0.0
2017-Apr-23 15:58N 54°26' E 018°39'0 0.1
2017-Apr-23 15:28N 54°26' E 018°39'0 0.1
2017-Apr-23 14:58N 54°26' E 018°39'0 0.1
2017-Apr-23 13:58N 54°26' E 018°39'0 0.1
2017-Apr-23 13:28N 54°26' E 018°39'0 0.2
2017-Apr-23 12:58N 54°26' E 018°39'0 0.1
2017-Apr-23 12:28N 54°27' E 018°39'0 0.0
2017-Apr-23 11:58N 54°27' E 018°39'0 0.0
2017-Apr-23 11:28N 54°27' E 018°39'0 0.0
2017-Apr-23 10:58N 54°26' E 018°39'0 0.0
2017-Apr-23 10:28N 54°26' E 018°39'0 0.1
2017-Apr-23 09:58N 54°26' E 018°39'0 0.0
2017-Apr-23 09:28N 54°26' E 018°39'0 0.1
2017-Apr-23 08:58N 54°26' E 018°39'0 0.0
2017-Apr-23 08:28N 54°26' E 018°39'0 0.0
2017-Apr-23 07:55N 54°26' E 018°39'0 0.0
2017-Apr-23 07:28N 54°26' E 018°39'0 0.0
2017-Apr-23 06:58N 54°26' E 018°39'0 0.0
2017-Apr-23 06:28N 54°26' E 018°39'0 0.0
2017-Apr-23 05:55N 54°26' E 018°39'0 0.0
2017-Apr-23 05:28N 54°26' E 018°39'0 0.0
2017-Apr-23 04:58N 54°26' E 018°39'0 0.0
2017-Apr-23 04:28N 54°26' E 018°39'0 0.0
2017-Apr-23 03:58N 54°26' E 018°39'0 0.0
2017-Apr-23 03:28N 54°26' E 018°39'0 0.0
2017-Apr-23 02:58N 54°26' E 018°39'0 0.0
2017-Apr-23 02:28N 54°26' E 018°39'0 0.0
2017-Apr-23 01:58N 54°26' E 018°39'0 0.0
2017-Apr-23 01:28N 54°26' E 018°39'0 0.0
2017-Apr-23 00:58N 54°26' E 018°39'0 0.0
2017-Apr-23 00:28N 54°26' E 018°39'0 0.0
2017-Apr-22 23:58N 54°26' E 018°39'0 0.0
2017-Apr-22 23:28N 54°26' E 018°39'0 0.0
2017-Apr-22 22:58N 54°26' E 018°39'0 0.0
2017-Apr-22 22:28N 54°26' E 018°39'0 0.0
2017-Apr-22 21:58N 54°26' E 018°39'0 0.0
2017-Apr-22 21:28N 54°26' E 018°39'0 0.0
2017-Apr-22 20:58N 54°26' E 018°39'0 0.1
2017-Apr-22 20:28N 54°26' E 018°39'0 0.1
2017-Apr-22 19:58N 54°26' E 018°39'0 0.0
2017-Apr-22 19:28N 54°26' E 018°39'0 0.0
2017-Apr-22 18:58N 54°26' E 018°39'0 0.0
2017-Apr-22 18:28N 54°26' E 018°39'0 0.0
2017-Apr-22 17:58N 54°26' E 018°39'0 0.0
2017-Apr-22 17:28N 54°26' E 018°39'0 0.0
2017-Apr-22 16:58N 54°26' E 018°39'0 0.0
2017-Apr-22 16:28N 54°26' E 018°39'0 0.2
2017-Apr-22 15:59N 54°27' E 018°39'2 4.9
2017-Apr-22 15:30N 54°28' E 018°42'5 9.1
2017-Apr-22 15:01N 54°32' E 018°47'5 9.3
2017-Apr-22 14:30N 54°35' E 018°52'9 9.5
2017-Apr-22 13:31N 54°44' E 018°59'4 7.1
2017-Apr-22 13:00N 54°47' E 018°57'4 8.2
2017-Apr-22 12:30N 54°50' E 018°51'4 8.3
2017-Apr-22 12:00N 54°52' E 018°45'4 8.8
2017-Apr-22 11:31N 54°55' E 018°39'4 8.8
2017-Apr-22 11:00N 54°57' E 018°33'4 9.0
2017-Apr-22 10:30N 54°57' E 018°25'5 9.0
2017-Apr-22 09:55N 54°56' E 018°16'4 8.9
2017-Apr-22 09:30N 54°56' E 018°10'4 8.9
2017-Apr-22 09:00N 54°55' E 018°02'  
2017-Apr-19 13:37N 53°34' E 014°35'0 0.1
2017-Apr-19 13:30N 53°34' E 014°35'0 0.0
2017-Apr-19 08:41N 53°34' E 014°35'  

Dump ship's entire track history